Portada
METAR-TAF:

METAR-TAF

Aeropuertos :

Aeropuerto de Bilwi

Puerto Cabezas, Nicaragua

latitud: 14-03N, longitud: 083-22W, altitud: 20 m

Observación

El informe se hizo hace 45 minutos, a las 18:00 UTC
Viento 12 kt del este-noreste
Temperatura 30°C
Humedad 62%
Presión 1013 hPa
Visibilidad: 7000 m
Nubes dispersas a una altura de 1600 ft
calima

METAR: MNPC 201800Z 06012KT 7000 SCT016 30/22 Q1013 HZ

Hora: 12:45 (18:45 UTC)

Pronóstico

El informe se hizo hace 3 horas y 5 minutos, a las 15:40 UTC
Pronóstico válido del 20 a las 18 UTC al 21 a las 18 UTC
Viento 10 kt del este-noreste con ráfagas de 20 kt
Visibilidad: 7000 m
Cielo nuboso a una altura de 1600 ft
A partir de las 21 a las 0300 UTC
Viento 10 kt del norte con ráfagas de 20 kt

TAF: MNPC 201540Z 2018/2118 07010G20KT 7000 HZ/VCRA BKN016 FM210300 36010G20KT

Observaciones y pronósticos meteorológicos de más de 4000 aeropuertos (mensajes METAR y TAF).

Los puntos amarillos y rojos representan las estaciones disponibles.

Ponga el ratón en el punto deseado para ver el nombre de la estación.

Haga clic para ver las observaciones y los pronósticos meteorológicos.

Para cambiar el mapa : haga clic en los botones verdes con una cruz de color negro para hacer un zoom, en el botón verde con un guión para alejar o en las flechas verdes para mapas adyacentes.


METAR-TAF: